createdAt,value
2017-07-02T00:00:54.541Z,6.17
2017-07-02T00:03:24.361Z,5.67
2017-07-02T00:05:54.075Z,6.80
2017-07-02T00:08:23.989Z,6.90
2017-07-02T00:10:53.765Z,5.73
2017-07-02T00:13:23.620Z,5.67
2017-07-02T00:15:53.404Z,5.90
2017-07-02T00:18:23.865Z,5.30
2017-07-02T00:20:53.683Z,6.33
2017-07-02T00:23:24.295Z,5.83
2017-07-02T00:25:54.132Z,5.97
2017-07-02T00:28:23.878Z,6.13
2017-07-02T00:30:53.586Z,5.93
2017-07-02T00:33:23.477Z,5.60
2017-07-02T00:35:53.264Z,6.10
2017-07-02T00:38:23.538Z,11.27
2017-07-02T00:40:53.348Z,12.10
2017-07-02T00:43:23.257Z,6.30
2017-07-02T00:45:52.998Z,10.33
2017-07-02T00:48:22.781Z,5.27
2017-07-02T00:50:52.534Z,7.40
2017-07-02T00:53:22.334Z,6.60
2017-07-02T00:55:52.079Z,8.00
2017-07-02T00:58:21.866Z,8.53
2017-07-02T01:00:51.694Z,11.63
2017-07-02T01:03:21.522Z,8.20
2017-07-02T01:05:51.318Z,10.40
2017-07-02T01:08:21.206Z,8.80
2017-07-02T01:10:51.028Z,9.63
2017-07-02T01:13:21.650Z,8.43
2017-07-02T01:15:51.398Z,8.50
2017-07-02T01:18:21.107Z,7.60
2017-07-02T01:20:51.003Z,9.93
2017-07-02T01:23:20.754Z,10.13
2017-07-02T01:25:51.351Z,9.07
2017-07-02T01:28:21.062Z,14.20
2017-07-02T01:30:50.810Z,7.33
2017-07-02T01:33:20.695Z,7.30
2017-07-02T01:35:50.519Z,9.30
2017-07-02T01:38:20.325Z,8.37
2017-07-02T01:40:50.090Z,7.53
2017-07-02T01:43:19.878Z,7.97
2017-07-02T01:45:49.709Z,11.47
2017-07-02T01:48:19.147Z,7.13
2017-07-02T01:50:49.000Z,9.73
2017-07-02T01:53:18.811Z,8.57
2017-07-02T01:55:47.916Z,10.27
2017-07-02T01:58:16.952Z,11.23
2017-07-02T02:00:58.009Z,8.23
2017-07-02T02:03:27.481Z,9.07
2017-07-02T02:05:57.226Z,11.53
2017-07-02T02:08:27.018Z,7.87
2017-07-02T02:10:56.739Z,9.40
2017-07-02T02:13:26.459Z,9.73
2017-07-02T02:15:56.290Z,8.37
2017-07-02T02:18:26.107Z,7.57
2017-07-02T02:20:55.865Z,9.13
2017-07-02T02:23:25.647Z,14.37
2017-07-02T02:25:55.427Z,9.80
2017-07-02T02:28:25.197Z,9.00
2017-07-02T02:30:55.772Z,17.10
2017-07-02T02:33:25.689Z,9.07
2017-07-02T02:35:55.530Z,11.67
2017-07-02T02:38:25.320Z,13.40
2017-07-02T02:40:55.061Z,10.63
2017-07-02T02:43:24.879Z,12.67
2017-07-02T02:45:55.481Z,10.47
2017-07-02T02:48:25.205Z,12.40
2017-07-02T02:50:55.012Z,11.90
2017-07-02T02:53:24.778Z,12.83
2017-07-02T02:55:54.569Z,10.50
2017-07-02T02:58:24.316Z,18.37
2017-07-02T03:00:54.096Z,12.13
2017-07-02T03:03:23.989Z,12.70
2017-07-02T03:05:53.722Z,12.13
2017-07-02T03:08:23.551Z,17.20
2017-07-02T03:10:53.439Z,17.27
2017-07-02T03:13:23.178Z,11.50
2017-07-02T03:15:53.069Z,11.70
2017-07-02T03:18:22.874Z,11.90
2017-07-02T03:20:53.461Z,14.27
2017-07-02T03:23:23.335Z,13.43
2017-07-02T03:25:53.049Z,13.50
2017-07-02T03:28:22.763Z,17.50
2017-07-02T03:30:52.516Z,14.90
2017-07-02T03:33:22.334Z,15.77
2017-07-02T03:35:52.726Z,13.30
2017-07-02T03:38:22.538Z,12.27
2017-07-02T03:40:52.350Z,13.13
2017-07-02T03:43:22.097Z,11.67
2017-07-02T03:45:51.905Z,11.60
2017-07-02T03:48:21.797Z,14.43
2017-07-02T03:50:51.549Z,14.47
2017-07-02T03:53:22.038Z,13.23
2017-07-02T03:55:51.755Z,10.63
2017-07-02T03:58:21.642Z,12.73
2017-07-02T04:00:52.411Z,14.27
2017-07-02T04:03:22.159Z,13.30
2017-07-02T04:05:51.938Z,15.03
2017-07-02T04:08:21.674Z,11.87
2017-07-02T04:10:50.696Z,16.97
2017-07-02T04:13:20.466Z,12.63
2017-07-02T04:15:50.209Z,16.30
2017-07-02T04:18:19.992Z,15.00
2017-07-02T04:20:50.318Z,13.53
2017-07-02T04:23:20.215Z,14.30
2017-07-02T04:25:50.729Z,13.80
2017-07-02T04:28:21.358Z,13.77
2017-07-02T04:30:51.187Z,14.00
2017-07-02T04:33:21.681Z,15.00
2017-07-02T04:35:51.521Z,13.50
2017-07-02T04:38:21.331Z,15.30
2017-07-02T04:40:51.068Z,11.67
2017-07-02T04:43:20.859Z,13.20
2017-07-02T04:45:50.659Z,14.10
2017-07-02T04:48:20.480Z,11.30
2017-07-02T04:50:51.744Z,13.03
2017-07-02T04:53:21.510Z,12.17
2017-07-02T04:55:51.213Z,14.10
2017-07-02T04:58:21.039Z,11.87
2017-07-02T05:00:50.779Z,12.13
2017-07-02T05:03:20.568Z,12.40
2017-07-02T05:05:50.334Z,18.73
2017-07-02T05:08:20.199Z,13.60
2017-07-02T05:10:50.017Z,11.87
2017-07-02T05:13:19.771Z,13.70
2017-07-02T05:15:49.467Z,17.37
2017-07-02T05:18:19.231Z,14.80
2017-07-02T05:20:48.986Z,14.03
2017-07-02T05:23:18.889Z,11.50
2017-07-02T05:25:48.705Z,9.77
2017-07-02T05:28:18.446Z,10.43
2017-07-02T05:30:48.400Z,9.43
2017-07-02T05:33:18.345Z,9.70
2017-07-02T05:35:49.021Z,14.23
2017-07-02T05:38:18.862Z,12.97
2017-07-02T05:40:48.658Z,13.40
2017-07-02T05:43:18.483Z,13.10
2017-07-02T05:45:48.278Z,8.60
2017-07-02T05:48:18.071Z,12.00
2017-07-02T05:50:48.908Z,11.10
2017-07-02T05:53:18.723Z,14.50
2017-07-02T05:55:48.466Z,10.87
2017-07-02T05:58:18.825Z,14.67
2017-07-02T06:00:48.624Z,9.37
2017-07-02T06:03:18.314Z,12.37
2017-07-02T06:05:48.212Z,12.57
2017-07-02T06:08:17.979Z,14.27
2017-07-02T06:10:47.843Z,11.60
2017-07-02T06:13:17.606Z,11.17
2017-07-02T06:15:48.114Z,11.40
2017-07-02T06:18:17.850Z,10.53
2017-07-02T06:20:47.642Z,13.90
2017-07-02T06:23:17.361Z,15.10
2017-07-02T06:25:47.813Z,11.17
2017-07-02T06:28:17.587Z,7.87
2017-07-02T06:30:47.419Z,11.67
2017-07-02T06:33:17.928Z,7.73
2017-07-02T06:35:47.709Z,8.93
2017-07-02T06:38:17.471Z,10.03
2017-07-02T06:40:47.290Z,11.20
2017-07-02T06:43:17.090Z,7.57
2017-07-02T06:45:46.829Z,7.37
2017-07-02T06:48:16.538Z,7.23
2017-07-02T06:50:46.331Z,11.07
2017-07-02T06:53:16.061Z,7.70
2017-07-02T06:55:45.755Z,7.37
2017-07-02T06:58:15.573Z,9.27
2017-07-02T07:00:45.424Z,8.17
2017-07-02T07:03:15.720Z,9.60
2017-07-02T07:05:45.466Z,8.00
2017-07-02T07:08:16.510Z,8.90
2017-07-02T07:10:48.247Z,10.20
2017-07-02T07:13:19.320Z,6.80
2017-07-02T07:15:50.817Z,7.00
2017-07-02T07:18:22.246Z,7.03
2017-07-02T07:20:52.508Z,6.43
2017-07-02T07:23:22.243Z,7.10
2017-07-02T07:25:52.062Z,10.10
2017-07-02T07:28:21.854Z,5.30
2017-07-02T07:30:51.670Z,5.30
2017-07-02T07:33:22.106Z,6.50
2017-07-02T07:35:51.883Z,7.07
2017-07-02T07:38:21.658Z,5.63
2017-07-02T07:40:52.777Z,7.23
2017-07-02T07:43:23.209Z,5.67
2017-07-02T07:45:53.813Z,8.37
2017-07-02T07:48:23.746Z,5.77
2017-07-02T07:50:55.279Z,6.13
2017-07-02T07:53:26.566Z,8.33
2017-07-02T07:55:57.257Z,9.33
2017-07-02T07:58:27.420Z,8.20
2017-07-02T08:00:59.743Z,8.27
2017-07-02T08:03:30.274Z,6.23
2017-07-02T08:06:01.490Z,5.73
2017-07-02T08:08:32.525Z,5.70
2017-07-02T08:11:02.978Z,8.20
2017-07-02T08:13:33.660Z,4.47
2017-07-02T08:16:04.509Z,4.33
2017-07-02T08:18:35.630Z,5.97
2017-07-02T08:21:06.597Z,6.70
2017-07-02T08:23:37.621Z,6.50
2017-07-02T08:26:08.595Z,7.50
2017-07-02T08:28:39.770Z,5.20
2017-07-02T08:31:11.879Z,7.37
2017-07-02T08:33:45.789Z,7.33
2017-07-02T08:36:19.706Z,5.53
2017-07-02T08:38:52.026Z,11.13
2017-07-02T08:41:25.393Z,8.07
2017-07-02T08:43:58.114Z,5.53
2017-07-02T08:46:30.846Z,7.80
2017-07-02T08:49:03.123Z,5.77
2017-07-02T08:51:33.693Z,8.63
2017-07-02T08:54:05.015Z,7.33
2017-07-02T08:56:37.017Z,4.90
2017-07-02T08:59:08.011Z,5.80
2017-07-02T09:01:39.404Z,6.60
2017-07-02T09:04:09.563Z,4.70
2017-07-02T09:06:40.340Z,5.10
2017-07-02T09:09:10.669Z,7.27
2017-07-02T09:11:41.303Z,6.80
2017-07-02T09:14:10.982Z,5.97
2017-07-02T09:16:40.770Z,5.67
2017-07-02T09:19:10.565Z,5.60
2017-07-02T09:21:42.291Z,6.27
2017-07-02T09:24:14.822Z,8.80
2017-07-02T09:26:48.495Z,6.37
2017-07-02T09:29:19.708Z,5.13
2017-07-02T09:31:51.739Z,6.93
2017-07-02T09:34:25.385Z,7.73
2017-07-02T09:36:58.748Z,6.53
2017-07-02T09:39:31.683Z,5.30
2017-07-02T09:42:04.359Z,3.87
2017-07-02T09:44:37.790Z,4.33
2017-07-02T09:47:10.455Z,4.27
2017-07-02T09:49:44.455Z,5.37
2017-07-02T09:52:16.476Z,6.60
2017-07-02T09:54:48.288Z,6.17
2017-07-02T09:57:19.991Z,6.10
2017-07-02T09:59:53.095Z,4.20
2017-07-02T10:02:26.764Z,7.30
2017-07-02T10:04:59.682Z,6.27
2017-07-02T10:07:32.614Z,6.33
2017-07-02T10:10:06.955Z,4.97
2017-07-02T10:12:38.375Z,6.10
2017-07-02T10:15:10.610Z,7.97
2017-07-02T10:17:42.788Z,6.07
2017-07-02T10:20:17.109Z,8.00
2017-07-02T10:22:50.205Z,3.60
2017-07-02T10:25:22.942Z,4.73
2017-07-02T10:27:55.364Z,4.60
2017-07-02T10:30:27.643Z,7.07
2017-07-02T10:33:01.059Z,4.47
2017-07-02T10:35:32.007Z,4.30
2017-07-02T10:38:02.831Z,3.50
2017-07-02T10:40:33.053Z,4.33
2017-07-02T10:43:03.582Z,4.27
2017-07-02T10:45:34.401Z,3.23
2017-07-02T10:48:04.911Z,5.23
2017-07-02T10:50:37.147Z,6.83
2017-07-02T10:53:08.499Z,8.63
2017-07-02T10:55:40.456Z,3.50
2017-07-02T10:58:11.804Z,3.10
2017-07-02T11:00:42.737Z,3.27
2017-07-02T11:03:14.646Z,3.27
2017-07-02T11:05:45.509Z,3.47
2017-07-02T11:08:15.266Z,8.50
2017-07-02T11:10:45.699Z,7.73
2017-07-02T11:13:15.416Z,3.67
2017-07-02T11:15:45.150Z,4.10
2017-07-02T11:18:14.982Z,2.83
2017-07-02T11:20:44.670Z,4.90
2017-07-02T11:23:14.443Z,3.20
2017-07-02T11:25:44.391Z,3.40
2017-07-02T11:28:14.140Z,3.43
2017-07-02T11:30:43.941Z,3.20
2017-07-02T11:33:13.769Z,3.07
2017-07-02T11:35:43.522Z,4.90
2017-07-02T11:38:13.386Z,3.73
2017-07-02T11:40:43.196Z,4.13
2017-07-02T11:43:13.047Z,5.00
2017-07-02T11:45:43.557Z,5.03
2017-07-02T11:48:13.386Z,3.87
2017-07-02T11:50:43.189Z,4.57
2017-07-02T11:53:12.974Z,2.90
2017-07-02T11:55:42.522Z,4.40
2017-07-02T11:58:12.302Z,3.30
2017-07-02T12:00:42.090Z,4.80
2017-07-02T12:03:12.450Z,3.70
2017-07-02T12:05:42.127Z,3.63
2017-07-02T12:08:11.872Z,4.13
2017-07-02T12:10:41.602Z,6.90
2017-07-02T12:13:11.403Z,5.20
2017-07-02T12:15:41.134Z,3.47
2017-07-02T12:18:10.802Z,4.03
2017-07-02T12:20:39.872Z,3.83
2017-07-02T12:23:08.963Z,3.67
2017-07-02T12:25:38.434Z,3.73
2017-07-02T12:28:07.455Z,3.53
2017-07-02T12:30:36.431Z,6.47
2017-07-02T12:33:05.840Z,4.63
2017-07-02T12:35:34.849Z,4.50
2017-07-02T12:38:04.009Z,3.03
2017-07-02T12:40:33.031Z,3.53
2017-07-02T12:43:02.774Z,4.10
2017-07-02T12:45:32.358Z,5.57
2017-07-02T12:48:02.087Z,4.97
2017-07-02T12:50:31.885Z,7.70
2017-07-02T12:53:01.594Z,4.77
2017-07-02T12:55:31.358Z,5.00
2017-07-02T12:58:01.076Z,3.73
2017-07-02T13:00:30.850Z,4.50
2017-07-02T13:03:00.567Z,4.90
2017-07-02T13:05:30.816Z,4.07
2017-07-02T13:08:00.563Z,5.63
2017-07-02T13:10:31.170Z,3.83
2017-07-02T13:13:01.007Z,4.57
2017-07-02T13:15:30.863Z,4.57
2017-07-02T13:18:00.606Z,4.40
2017-07-02T13:20:30.435Z,4.37
2017-07-02T13:23:00.208Z,5.50
2017-07-02T13:25:30.026Z,3.67
2017-07-02T13:27:59.727Z,3.87
2017-07-02T13:30:29.466Z,3.40
2017-07-02T13:32:59.310Z,4.60
2017-07-02T13:35:29.630Z,4.60
2017-07-02T13:37:59.467Z,4.90
2017-07-02T13:40:29.231Z,3.73
2017-07-02T13:42:58.942Z,3.83
2017-07-02T13:45:28.704Z,5.20
2017-07-02T13:47:58.473Z,4.80
2017-07-02T13:50:28.239Z,4.43
2017-07-02T13:52:58.563Z,3.70
2017-07-02T13:55:28.429Z,4.77
2017-07-02T13:57:58.189Z,4.27
2017-07-02T14:00:27.976Z,4.63
2017-07-02T14:02:57.704Z,4.23
2017-07-02T14:05:27.526Z,4.30
2017-07-02T14:07:57.218Z,4.63
2017-07-02T14:10:27.016Z,4.97
2017-07-02T14:12:56.758Z,6.27
2017-07-02T14:15:27.482Z,3.73
2017-07-02T14:17:57.170Z,3.80
2017-07-02T14:20:26.929Z,3.83
2017-07-02T14:22:56.654Z,3.67
2017-07-02T14:25:28.498Z,4.33
2017-07-02T14:27:59.058Z,3.40
2017-07-02T14:30:29.474Z,4.87
2017-07-02T14:33:01.573Z,4.00
2017-07-02T14:35:32.139Z,3.63
2017-07-02T14:38:01.909Z,3.47
2017-07-02T14:40:31.593Z,4.43
2017-07-02T14:43:01.273Z,4.90
2017-07-02T14:45:31.714Z,4.10
2017-07-02T14:48:01.525Z,3.80
2017-07-02T14:50:31.337Z,3.97
2017-07-02T14:53:01.047Z,4.67
2017-07-02T14:55:31.074Z,5.00
2017-07-02T14:58:00.828Z,3.30
2017-07-02T15:00:30.627Z,4.50
2017-07-02T15:03:00.352Z,3.53
2017-07-02T15:05:30.629Z,3.90
2017-07-02T15:08:00.867Z,4.80
2017-07-02T15:10:30.629Z,3.17
2017-07-02T15:13:01.728Z,3.53
2017-07-02T15:15:31.476Z,3.43
2017-07-02T15:18:02.044Z,3.80
2017-07-02T15:20:34.839Z,3.90
2017-07-02T15:23:06.797Z,6.83
2017-07-02T15:25:40.088Z,4.40
2017-07-02T15:28:12.009Z,4.30
2017-07-02T15:30:44.735Z,6.80
2017-07-02T15:33:16.640Z,4.03
2017-07-02T15:35:49.284Z,3.73
2017-07-02T15:38:20.406Z,6.00
2017-07-02T15:40:50.196Z,5.20
2017-07-02T15:43:22.510Z,4.33
2017-07-02T15:45:53.524Z,3.90
2017-07-02T15:48:23.506Z,5.87
2017-07-02T15:50:55.856Z,4.70
2017-07-02T15:53:28.640Z,5.27
2017-07-02T15:56:01.615Z,4.67
2017-07-02T15:58:32.803Z,4.80
2017-07-02T16:01:03.023Z,4.60
2017-07-02T16:03:33.032Z,4.40
2017-07-02T16:06:04.045Z,6.37
2017-07-02T16:08:33.790Z,4.30
2017-07-02T16:11:03.689Z,4.67
2017-07-02T16:13:34.162Z,5.23
2017-07-02T16:16:04.069Z,4.47
2017-07-02T16:18:33.891Z,4.20
2017-07-02T16:21:03.594Z,4.73
2017-07-02T16:23:33.872Z,4.30
2017-07-02T16:26:03.714Z,3.73
2017-07-02T16:28:36.337Z,7.90
2017-07-02T16:31:06.739Z,4.87
2017-07-02T16:33:37.050Z,4.63
2017-07-02T16:36:07.273Z,4.37
2017-07-02T16:38:39.601Z,4.73
2017-07-02T16:41:11.334Z,4.37
2017-07-02T16:43:43.404Z,5.20
2017-07-02T16:46:14.443Z,4.30
2017-07-02T16:48:46.001Z,5.40
2017-07-02T16:51:16.443Z,4.63
2017-07-02T16:53:46.424Z,4.67
2017-07-02T16:56:16.189Z,4.17
2017-07-02T16:58:46.031Z,5.20
2017-07-02T17:01:15.801Z,4.00
2017-07-02T17:03:45.788Z,3.33
2017-07-02T17:06:17.036Z,6.80
2017-07-02T17:08:48.619Z,2.00
2017-07-02T17:11:19.457Z,2.37
2017-07-02T17:13:50.049Z,1.93
2017-07-02T17:16:20.219Z,1.73
2017-07-02T17:18:50.031Z,1.70
2017-07-02T17:21:20.275Z,2.00
2017-07-02T17:23:52.476Z,1.93
2017-07-02T17:26:24.390Z,2.43
2017-07-02T17:28:56.764Z,2.00
2017-07-02T17:31:29.491Z,1.80
2017-07-02T17:34:00.494Z,1.73
2017-07-02T17:36:33.704Z,1.80
2017-07-02T17:39:06.985Z,1.87
2017-07-02T17:41:38.084Z,1.90
2017-07-02T17:44:08.666Z,1.67
2017-07-02T17:46:40.777Z,1.80
2017-07-02T17:49:12.298Z,1.20
2017-07-02T17:51:44.243Z,1.70
2017-07-02T17:54:16.144Z,1.77
2017-07-02T17:56:48.744Z,2.03
2017-07-02T17:59:19.991Z,2.57
2017-07-02T18:01:51.736Z,1.80
2017-07-02T18:04:25.167Z,2.40
2017-07-02T18:06:56.866Z,2.70
2017-07-02T18:09:28.735Z,2.83
2017-07-02T18:12:01.475Z,3.10
2017-07-02T18:14:32.646Z,3.30
2017-07-02T18:17:05.844Z,2.60
2017-07-02T18:19:37.463Z,3.20
2017-07-02T18:22:07.209Z,3.87
2017-07-02T18:24:38.553Z,3.30
2017-07-02T18:27:09.580Z,4.03
2017-07-02T18:29:39.626Z,3.87
2017-07-02T18:32:13.769Z,4.13
2017-07-02T18:34:44.578Z,3.97
2017-07-02T18:37:16.169Z,3.57
2017-07-02T18:39:47.730Z,4.83
2017-07-02T18:42:18.886Z,4.53
2017-07-02T18:44:50.411Z,4.23
2017-07-02T18:47:20.609Z,4.10
2017-07-02T18:49:52.233Z,3.63
2017-07-02T18:52:24.521Z,4.50
2017-07-02T18:54:57.089Z,4.17
2017-07-02T18:57:29.690Z,5.23
2017-07-02T19:00:01.041Z,3.50
2017-07-02T19:02:30.881Z,3.73
2017-07-02T19:05:04.587Z,3.80
2017-07-02T19:07:34.923Z,3.73
2017-07-02T19:10:06.839Z,5.90
2017-07-02T19:12:40.628Z,3.40
2017-07-02T19:15:14.065Z,3.47
2017-07-02T19:17:46.586Z,3.70
2017-07-02T19:20:19.242Z,3.03
2017-07-02T19:22:52.098Z,3.27
2017-07-02T19:25:24.639Z,3.40
2017-07-02T19:27:58.332Z,3.60
2017-07-02T19:30:31.451Z,3.13
2017-07-02T19:33:02.086Z,3.60
2017-07-02T19:35:31.566Z,3.30
2017-07-02T19:38:01.223Z,3.40
2017-07-02T19:40:31.032Z,3.17
2017-07-02T19:43:00.876Z,3.10
2017-07-02T19:45:30.630Z,2.77
2017-07-02T19:48:00.389Z,2.73
2017-07-02T19:50:30.126Z,2.77
2017-07-02T19:52:59.809Z,3.90
2017-07-02T19:55:30.222Z,2.77
2017-07-02T19:58:00.081Z,2.40
2017-07-02T20:00:29.866Z,3.20
2017-07-02T20:03:00.670Z,2.90
2017-07-02T20:05:30.422Z,2.63
2017-07-02T20:08:00.390Z,2.50
2017-07-02T20:10:30.226Z,2.40
2017-07-02T20:12:59.811Z,2.60
2017-07-02T20:15:29.403Z,2.93
2017-07-02T20:17:59.129Z,2.57
2017-07-02T20:20:28.827Z,2.77
2017-07-02T20:22:58.582Z,3.00
2017-07-02T20:25:28.358Z,2.70
2017-07-02T20:27:58.067Z,2.90
2017-07-02T20:30:27.713Z,2.87
2017-07-02T20:32:57.500Z,3.10
2017-07-02T20:35:27.247Z,2.50
2017-07-02T20:37:56.936Z,2.63
2017-07-02T20:40:26.693Z,2.90
2017-07-02T20:42:56.562Z,3.83
2017-07-02T20:45:27.093Z,2.80
2017-07-02T20:47:56.797Z,3.00
2017-07-02T20:50:26.621Z,4.00
2017-07-02T20:52:56.334Z,2.77
2017-07-02T20:55:26.153Z,2.97
2017-07-02T20:57:56.555Z,2.87
2017-07-02T21:00:27.008Z,2.80
2017-07-02T21:02:56.719Z,3.20
2017-07-02T21:05:27.003Z,3.00
2017-07-02T21:07:56.759Z,2.90
2017-07-02T21:10:26.519Z,2.80
2017-07-02T21:12:56.294Z,2.80
2017-07-02T21:15:26.014Z,3.83
2017-07-02T21:17:55.752Z,3.70
2017-07-02T21:20:26.048Z,2.57
2017-07-02T21:22:55.753Z,3.03
2017-07-02T21:25:25.578Z,3.00
2017-07-02T21:27:55.319Z,3.13
2017-07-02T21:30:25.005Z,2.77
2017-07-02T21:32:54.719Z,2.83
2017-07-02T21:35:24.431Z,3.40
2017-07-02T21:37:54.228Z,2.60
2017-07-02T21:40:24.135Z,3.13
2017-07-02T21:42:53.876Z,3.60
2017-07-02T21:45:23.607Z,20.73
2017-07-02T21:47:53.356Z,4.33
2017-07-02T21:50:23.229Z,4.13
2017-07-02T21:52:53.038Z,4.70
2017-07-02T21:55:22.896Z,3.80
2017-07-02T21:57:53.363Z,6.03
2017-07-02T22:00:23.269Z,3.70
2017-07-02T22:02:53.018Z,4.13
2017-07-02T22:05:22.737Z,4.83
2017-07-02T22:07:52.513Z,3.20
2017-07-02T22:10:22.363Z,3.80
2017-07-02T22:12:52.231Z,3.97
2017-07-02T22:15:21.894Z,3.73
2017-07-02T22:17:51.635Z,3.27
2017-07-02T22:20:21.423Z,3.03
2017-07-02T22:22:51.197Z,4.70
2017-07-02T22:25:20.886Z,5.27
2017-07-02T22:27:50.666Z,4.60
2017-07-02T22:30:20.344Z,2.90
2017-07-02T22:32:50.091Z,4.40
2017-07-02T22:35:19.800Z,3.30
2017-07-02T22:37:49.532Z,3.20
2017-07-02T22:40:19.858Z,2.70
2017-07-02T22:42:49.663Z,4.97
2017-07-02T22:45:19.373Z,4.10
2017-07-02T22:47:49.757Z,3.90
2017-07-02T22:50:20.134Z,2.80
2017-07-02T22:52:50.430Z,4.70
2017-07-02T22:55:20.843Z,2.87
2017-07-02T22:57:51.442Z,4.43
2017-07-02T23:00:21.959Z,7.00
2017-07-02T23:02:52.323Z,3.20
2017-07-02T23:05:22.099Z,3.90
2017-07-02T23:07:51.897Z,2.77
2017-07-02T23:10:21.654Z,3.87
2017-07-02T23:12:51.438Z,3.80
2017-07-02T23:15:21.882Z,3.17
2017-07-02T23:17:51.589Z,4.50
2017-07-02T23:20:21.312Z,3.03
2017-07-02T23:22:51.119Z,3.30
2017-07-02T23:25:20.803Z,7.90
2017-07-02T23:27:50.645Z,4.20
2017-07-02T23:30:20.373Z,3.00
2017-07-02T23:32:50.078Z,3.00
2017-07-02T23:35:19.810Z,4.63
2017-07-02T23:37:49.636Z,5.63
2017-07-02T23:40:20.133Z,4.43
2017-07-02T23:42:49.851Z,4.47
2017-07-02T23:45:19.663Z,4.03
2017-07-02T23:47:49.400Z,6.60
2017-07-02T23:50:20.117Z,3.03
2017-07-02T23:52:49.872Z,4.43
2017-07-02T23:55:19.745Z,6.70
2017-07-02T23:57:49.462Z,5.53
